Time;durP1;ratioP1;P1;durP2;ratioP2;P2;SDS_P1;SDS_P2;PMS_P1;PMS_P2;Temp;Humidity;BMP_temperature;BMP_pressure;BME280_temperature;BME280_humidity;BME280_pressure;Samples;Min_cycle;Max_cycle;Signal;HPM_P1;HPM_P2
2022/03/31 00:00:49;;;;;;;1.43;1.20;;;;;;;6.50;100.00;100407.31;5005689;28;20196;-76
2022/03/31 00:03:19;;;;;;;1.53;1.33;;;;;;;6.88;100.00;100489.88;5008789;28;20478;-76
2022/03/31 00:05:45;;;;;;;2.57;1.60;;;;;;;6.44;100.00;100468.50;5017257;28;20468;-77
2022/03/31 00:08:15;;;;;;;1.70;1.60;;;;;;;6.90;100.00;100493.19;5012240;28;20454;-78
2022/03/31 00:10:44;;;;;;;1.97;1.60;;;;;;;6.63;100.00;100504.47;5014126;28;20450;-78
2022/03/31 00:13:13;;;;;;;3.40;2.70;;;;;;;6.78;100.00;100452.81;5013224;28;20442;-79
2022/03/31 00:15:39;;;;;;;1.77;1.67;;;;;;;6.49;100.00;100460.81;5007455;28;20581;-79
2022/03/31 00:18:06;;;;;;;2.17;1.97;;;;;;;6.64;100.00;100439.50;5013480;28;20446;-78
2022/03/31 00:20:31;;;;;;;1.57;1.47;;;;;;;6.24;100.00;100444.19;5015440;28;20928;-79
2022/03/31 00:22:57;;;;;;;2.77;1.97;;;;;;;6.90;100.00;100487.84;5004743;28;20501;-78
2022/03/31 00:25:32;;;;;;;2.27;1.97;;;;;;;6.61;100.00;100456.66;5007618;28;20213;-78
2022/03/31 00:27:57;;;;;;;2.20;1.60;;;;;;;6.89;100.00;100483.53;4992712;28;20695;-79
2022/03/31 00:30:25;;;;;;;2.10;1.70;;;;;;;6.89;100.00;100464.06;5007834;28;20449;-80
2022/03/31 00:32:51;;;;;;;3.10;2.50;;;;;;;6.26;100.00;100372.94;4994428;28;20592;-80
2022/03/31 00:35:16;;;;;;;2.90;2.33;;;;;;;6.38;100.00;100432.75;5003481;28;20498;-78
2022/03/31 00:37:44;;;;;;;2.73;2.53;;;;;;;6.50;100.00;100444.63;5013982;28;20451;-78
2022/03/31 00:40:11;;;;;;;3.40;1.93;;;;;;;6.62;100.00;100471.63;5011194;28;20209;-78
2022/03/31 00:42:42;;;;;;;2.00;1.90;;;;;;;6.60;100.00;100470.19;5009209;28;20447;-78
2022/03/31 00:45:16;;;;;;;2.10;2.00;;;;;;;6.40;100.00;100468.03;5005791;28;20499;-78
2022/03/31 00:47:41;;;;;;;2.70;2.37;;;;;;;6.60;100.00;100475.53;5010498;28;20456;-78
2022/03/31 00:50:08;;;;;;;2.40;2.20;;;;;;;6.66;100.00;100472.13;5016342;28;20447;-78
2022/03/31 00:52:34;;;;;;;2.37;2.17;;;;;;;6.55;100.00;100452.91;5014496;28;20697;-78
2022/03/31 00:55:00;;;;;;;2.13;2.00;;;;;;;6.29;100.00;100447.16;5013180;28;21087;-78
2022/03/31 00:57:25;;;;;;;2.10;1.90;;;;;;;6.15;100.00;100426.66;5010946;28;20197;-78
2022/03/31 00:59:51;;;;;;;1.80;1.70;;;;;;;6.06;100.00;100424.03;5010341;28;20465;-78
2022/03/31 01:02:16;;;;;;;2.70;2.17;;;;;;;6.14;100.00;100425.81;5006434;28;20240;-78
2022/03/31 01:04:42;;;;;;;3.10;2.10;;;;;;;6.36;100.00;100434.75;5006228;28;20208;-77
2022/03/31 01:07:07;;;;;;;2.13;1.80;;;;;;;6.37;100.00;100454.25;5013221;28;20195;-78
2022/03/31 01:09:32;;;;;;;1.63;1.40;;;;;;;5.91;100.00;100385.88;4993917;28;20200;-78
2022/03/31 01:12:00;;;;;;;1.70;1.50;;;;;;;6.64;100.00;100440.31;5013613;28;20192;-77
2022/03/31 01:14:26;;;;;;;1.60;1.50;;;;;;;6.04;100.00;100366.66;5003830;28;20223;-78
2022/03/31 01:16:51;;;;;;;1.67;1.57;;;;;;;6.07;100.00;100412.38;5007550;28;20439;-77
2022/03/31 01:19:17;;;;;;;1.43;1.33;;;;;;;6.28;100.00;100450.84;5004693;28;20216;-77
2022/03/31 01:21:46;;;;;;;1.30;1.20;;;;;;;6.43;100.00;100449.03;5009098;28;20635;-78
2022/03/31 01:24:14;;;;;;;1.40;1.30;;;;;;;6.22;100.00;100390.28;5006347;28;20195;-77
2022/03/31 01:26:41;;;;;;;1.77;1.67;;;;;;;6.39;100.00;100438.91;4988510;28;20455;-79
2022/03/31 01:29:11;;;;;;;2.40;1.30;;;;;;;6.24;100.00;100412.25;4994143;28;20975;-79
2022/03/31 01:31:38;;;;;;;2.10;1.60;;;;;;;6.16;100.00;100413.13;5010164;28;20451;-78
2022/03/31 01:34:04;;;;;;;1.67;1.57;;;;;;;5.83;100.00;100372.63;5011082;28;20936;-78
2022/03/31 01:36:30;;;;;;;1.00;1.00;;;;;;;5.55;100.00;100375.84;4987432;28;20489;-78
2022/03/31 01:38:56;;;;;;;1.13;1.03;;;;;;;6.25;100.00;100435.19;5014870;28;20451;-78
2022/03/31 01:41:22;;;;;;;1.07;1.00;;;;;;;6.54;100.00;100429.13;5007984;28;20201;-78
2022/03/31 01:43:48;;;;;;;3.27;1.17;;;;;;;5.74;100.00;100377.19;5003269;28;20457;-77
2022/03/31 01:46:13;;;;;;;1.33;1.33;;;;;;;5.49;100.00;100367.75;5012903;28;20467;-78
2022/03/31 01:48:38;;;;;;;2.00;1.20;;;;;;;5.66;100.00;100348.81;5010759;28;20242;-79
2022/03/31 01:51:04;;;;;;;1.07;1.00;;;;;;;5.97;100.00;100401.16;5006688;28;20189;-78
2022/03/31 01:53:39;;;;;;;1.17;1.13;;;;;;;6.03;100.00;100389.78;5007082;28;20724;-78
2022/03/31 01:56:06;;;;;;;2.00;1.43;;;;;;;5.70;100.00;100351.09;5006277;28;20521;-78
2022/03/31 01:58:32;;;;;;;2.73;1.50;;;;;;;5.40;100.00;100311.94;5005074;28;20450;-79
2022/03/31 02:00:58;;;;;;;2.40;1.33;;;;;;;5.87;100.00;100392.56;5006535;28;20485;-79
2022/03/31 02:03:24;;;;;;;1.10;1.07;;;;;;;5.28;100.00;100317.84;5002780;28;20439;-78
2022/03/31 02:05:50;;;;;;;2.50;1.10;;;;;;;5.84;100.00;100422.19;5006861;28;20274;-78
2022/03/31 02:08:17;;;;;;;1.47;1.20;;;;;;;6.07;100.00;100401.72;4988697;28;20438;-78
2022/03/31 02:10:42;;;;;;;1.30;1.20;;;;;;;5.79;100.00;100382.81;5004221;28;20450;-78
2022/03/31 02:13:08;;;;;;;1.30;1.20;;;;;;;6.11;100.00;100395.06;5002265;28;20561;-78
2022/03/31 02:15:34;;;;;;;2.60;1.40;;;;;;;6.14;100.00;100401.84;5006730;28;20243;-78
2022/03/31 02:18:02;;;;;;;1.43;1.20;;;;;;;6.04;100.00;100366.66;5015541;28;20200;-78
2022/03/31 02:20:30;;;;;;;1.07;1.07;;;;;;;5.63;100.00;100357.16;5006652;28;20485;-78
2022/03/31 02:23:00;;;;;;;1.43;1.33;;;;;;;6.05;100.00;100403.75;5018283;28;20471;-79
2022/03/31 02:25:26;;;;;;;1.63;1.53;;;;;;;5.99;100.00;100400.97;5009664;28;20471;-78
2022/03/31 02:27:52;;;;;;;2.07;1.60;;;;;;;5.61;100.00;100318.41;5011650;28;20443;-79
2022/03/31 02:30:19;;;;;;;1.50;1.40;;;;;;;5.69;100.00;100350.28;5014149;28;20449;-79
2022/03/31 02:32:44;;;;;;;1.50;1.40;;;;;;;5.93;100.00;100365.28;4991604;28;20499;-78
2022/03/31 02:35:11;;;;;;;1.53;1.43;;;;;;;6.06;100.00;100385.94;5007004;28;21040;-79
2022/03/31 02:37:36;;;;;;;1.50;1.40;;;;;;;5.79;100.00;100313.63;5008193;28;20688;-79
2022/03/31 02:40:04;;;;;;;1.80;1.70;;;;;;;5.98;100.00;100368.19;4995486;28;20455;-79
2022/03/31 02:42:29;;;;;;;2.00;1.90;;;;;;;5.83;100.00;100351.34;5009863;28;20195;-79
2022/03/31 02:44:55;;;;;;;1.70;1.60;;;;;;;5.78;100.00;100309.28;5009103;28;20476;-79
2022/03/31 02:47:20;;;;;;;1.33;1.30;;;;;;;6.09;100.00;100348.31;5011071;28;21020;-78
2022/03/31 02:49:45;;;;;;;2.83;1.80;;;;;;;6.11;100.00;100314.34;5004047;28;20248;-78
2022/03/31 02:52:11;;;;;;;2.70;1.80;;;;;;;6.13;100.00;100333.59;5004650;28;20203;-79
2022/03/31 02:57:20;;;;;;;2.80;2.30;;;;;;;6.03;100.00;100346.38;5013683;28;20200;-78
2022/03/31 02:59:45;;;;;;;4.33;2.50;;;;;;;5.67;100.00;100299.09;5006609;28;20434;-79
2022/03/31 03:02:11;;;;;;;2.70;2.50;;;;;;;5.90;100.00;100333.63;5009399;28;22051;-79
2022/03/31 03:04:36;;;;;;;2.40;2.20;;;;;;;5.81;100.00;100305.44;5004806;28;20223;-78
2022/03/31 03:07:02;;;;;;;4.00;2.87;;;;;;;6.13;100.00;100330.94;5013893;28;20281;-78
2022/03/31 03:09:28;;;;;;;3.57;2.90;;;;;;;6.47;100.00;100340.25;4990945;28;20223;-77
2022/03/31 03:11:53;;;;;;;2.67;2.47;;;;;;;6.32;100.00;100346.41;5007392;28;20505;-78
2022/03/31 03:14:19;;;;;;;2.30;2.20;;;;;;;5.86;100.00;100325.19;5011025;28;20208;-79
2022/03/31 03:16:44;;;;;;;2.00;1.90;;;;;;;6.01;100.00;100341.22;4992315;28;20719;-78
2022/03/31 03:19:10;;;;;;;1.50;1.40;;;;;;;5.97;100.00;100318.63;5005808;28;20215;-79
2022/03/31 03:21:36;;;;;;;1.70;1.60;;;;;;;5.68;100.00;100308.72;5011829;28;20199;-79
2022/03/31 03:24:03;;;;;;;1.50;1.40;;;;;;;5.77;100.00;100333.44;5005000;28;20469;-78
2022/03/31 03:26:29;;;;;;;1.47;1.37;;;;;;;5.93;100.00;100325.34;5003149;28;20451;-78
2022/03/31 03:28:55;;;;;;;1.60;1.50;;;;;;;5.92;100.00;100301.53;5007603;28;20462;-78
2022/03/31 03:31:20;;;;;;;1.03;1.03;;;;;;;5.92;100.00;100344.94;5009065;28;20443;-79
2022/03/31 03:33:46;;;;;;;1.30;1.30;;;;;;;6.08;100.00;100334.19;5002213;28;20439;-78
2022/03/31 03:36:13;;;;;;;1.33;1.23;;;;;;;5.83;100.00;100341.53;5003040;28;20242;-78
2022/03/31 03:38:40;;;;;;;1.20;1.20;;;;;;;5.41;100.00;100256.94;5012973;28;20571;-78
2022/03/31 03:41:06;;;;;;;1.30;1.30;;;;;;;5.63;100.00;100313.75;5011212;28;20447;-78
2022/03/31 03:43:32;;;;;;;1.03;1.03;;;;;;;5.62;100.00;100275.69;5002091;28;20447;-78
2022/03/31 03:45:57;;;;;;;1.10;1.00;;;;;;;5.31;100.00;100233.22;5013808;28;20485;-78
2022/03/31 03:48:23;;;;;;;0.90;0.90;;;;;;;5.78;100.00;100311.94;5011799;28;20196;-78
2022/03/31 03:50:48;;;;;;;1.20;1.10;;;;;;;5.59;100.00;100265.41;5009244;28;20192;-78
2022/03/31 03:53:15;;;;;;;0.97;0.97;;;;;;;5.91;100.00;100329.97;5006874;28;20223;-77
2022/03/31 03:55:40;;;;;;;1.00;1.00;;;;;;;5.94;100.00;100316.34;5015656;28;20298;-78
2022/03/31 03:58:05;;;;;;;1.13;1.13;;;;;;;5.66;100.00;100292.13;5014357;28;20457;-77
2022/03/31 04:00:31;;;;;;;1.00;1.00;;;;;;;5.57;100.00;100314.47;5010280;28;20241;-77
2022/03/31 04:02:57;;;;;;;1.33;1.00;;;;;;;5.87;100.00;100326.88;5010186;28;20180;-77
2022/03/31 04:05:23;;;;;;;0.90;0.90;;;;;;;6.13;100.00;100322.97;5015650;28;20210;-77
2022/03/31 04:07:48;;;;;;;1.10;1.10;;;;;;;5.54;100.00;100259.78;5013285;28;20447;-78
2022/03/31 04:10:14;;;;;;;0.80;0.80;;;;;;;5.83;100.00;100322.88;5016052;28;20283;-78
2022/03/31 04:12:39;;;;;;;0.93;0.93;;;;;;;5.03;100.00;100248.88;5021074;28;20216;-79
2022/03/31 04:15:07;;;;;;;1.00;1.00;;;;;;;5.59;100.00;100307.97;5006300;28;20216;-79
2022/03/31 04:17:33;;;;;;;1.03;1.03;;;;;;;5.38;100.00;100265.25;4997378;28;20279;-79
2022/03/31 04:19:59;;;;;;;0.80;0.80;;;;;;;5.69;100.00;100320.19;5005913;28;20819;-79
2022/03/31 04:22:25;;;;;;;1.00;1.00;;;;;;;5.40;100.00;100265.91;5008202;28;20573;-78
2022/03/31 04:24:50;;;;;;;0.77;0.77;;;;;;;5.77;100.00;100281.03;5011611;28;20451;-78
2022/03/31 04:27:15;;;;;;;0.60;0.60;;;;;;;5.79;100.00;100315.47;5009587;28;20438;-79
2022/03/31 04:29:41;;;;;;;0.67;0.67;;;;;;;5.76;100.00;100290.03;5011438;28;20725;-78
2022/03/31 04:32:07;;;;;;;0.80;0.80;;;;;;;4.91;100.00;100186.53;5008529;28;25347;-78
2022/03/31 04:34:33;;;;;;;0.60;0.60;;;;;;;5.71;100.00;100276.44;5012608;28;20220;-78
2022/03/31 04:36:58;;;;;;;0.70;0.70;;;;;;;5.34;100.00;100293.22;5009683;28;20439;-78
2022/03/31 04:39:24;;;;;;;0.70;0.70;;;;;;;5.72;100.00;100319.84;5010932;28;20722;-78
2022/03/31 04:41:49;;;;;;;0.70;0.70;;;;;;;4.97;100.00;100231.81;5010605;28;20192;-78
2022/03/31 04:44:15;;;;;;;0.80;0.80;;;;;;;5.52;100.00;100279.59;5006787;28;20239;-78
2022/03/31 04:46:40;;;;;;;1.20;1.20;;;;;;;5.19;100.00;100262.06;5008981;28;20188;-77
2022/03/31 04:49:07;;;;;;;0.90;0.90;;;;;;;5.66;100.00;100314.22;5006128;28;20216;-78
2022/03/31 04:51:33;;;;;;;1.17;1.07;;;;;;;4.65;100.00;100278.03;5007274;28;20184;-78
2022/03/31 04:53:59;;;;;;;1.30;1.30;;;;;;;5.47;100.00;100317.41;5013365;28;20501;-78
2022/03/31 04:56:24;;;;;;;0.93;0.93;;;;;;;5.44;100.00;100285.84;5006656;28;20674;-78
2022/03/31 04:58:49;;;;;;;1.10;1.10;;;;;;;5.08;100.00;100233.25;5010910;28;20184;-78
2022/03/31 05:01:16;;;;;;;1.57;1.47;;;;;;;5.35;100.00;100311.66;5006968;28;20193;-78
2022/03/31 05:03:42;;;;;;;1.17;1.17;;;;;;;5.21;100.00;100272.53;5005202;28;20192;-78
2022/03/31 05:06:07;;;;;;;1.07;1.00;;;;;;;5.35;100.00;100284.22;5010817;28;20466;-78
2022/03/31 05:08:33;;;;;;;1.00;1.00;;;;;;;5.25;100.00;100295.09;5004373;28;20197;-79
2022/03/31 05:11:01;;;;;;;1.20;1.20;;;;;;;5.12;100.00;100293.03;5003304;28;20193;-78
2022/03/31 05:13:27;;;;;;;1.20;1.20;;;;;;;5.21;100.00;100291.97;4987634;28;20200;-78
2022/03/31 05:15:52;;;;;;;1.83;1.73;;;;;;;5.06;100.00;100253.84;5005517;28;20860;-78
2022/03/31 05:18:18;;;;;;;1.40;1.40;;;;;;;5.60;100.00;100322.91;5004645;28;20192;-78
2022/03/31 05:20:44;;;;;;;1.63;1.53;;;;;;;5.36;100.00;100318.63;5005690;28;20199;-78
2022/03/31 05:23:10;;;;;;;1.73;1.63;;;;;;;4.90;100.00;100277.91;4996613;28;20199;-79
2022/03/31 05:25:36;;;;;;;1.70;1.60;;;;;;;5.26;100.00;100294.09;5002155;28;20692;-80
2022/03/31 05:28:02;;;;;;;1.50;1.47;;;;;;;4.70;100.00;100267.72;4988109;28;20466;-79
2022/03/31 05:30:27;;;;;;;1.90;1.80;;;;;;;5.11;100.00;100299.34;4994557;28;20196;-79
2022/03/31 05:32:53;;;;;;;2.03;1.93;;;;;;;4.93;100.00;100282.84;4987596;28;20954;-78
2022/03/31 05:35:20;;;;;;;1.53;1.53;;;;;;;5.10;100.00;100318.97;4985554;28;20285;-77
2022/03/31 05:37:46;;;;;;;1.80;1.70;;;;;;;5.48;100.00;100326.19;4986391;28;20523;-79
2022/03/31 05:40:13;;;;;;;3.10;2.00;;;;;;;5.55;100.00;100319.97;4985128;28;21298;-81
2022/03/31 05:42:40;;;;;;;1.90;1.80;;;;;;;5.29;100.00;100330.97;5001292;28;20454;-79
2022/03/31 05:45:07;;;;;;;2.07;1.97;;;;;;;5.37;100.00;100320.28;5012659;28;20521;-82
2022/03/31 05:47:32;;;;;;;2.03;1.93;;;;;;;5.17;100.00;100311.09;5013651;28;20439;-86
2022/03/31 05:49:58;;;;;;;2.30;2.20;;;;;;;4.68;100.00;100269.69;4999668;28;20484;-85
2022/03/31 05:52:24;;;;;;;2.17;2.07;;;;;;;4.95;100.00;100331.38;4998704;28;20696;-85
2022/03/31 05:54:50;;;;;;;2.43;2.33;;;;;;;5.26;100.00;100349.94;4992165;28;20554;-84
2022/03/31 05:57:16;;;;;;;2.40;2.30;;;;;;;5.15;100.00;100340.53;4995991;28;20201;-84
2022/03/31 05:59:42;;;;;;;2.37;2.27;;;;;;;5.10;100.00;100318.16;4996745;28;20192;-84
2022/03/31 06:02:09;;;;;;;2.70;2.50;;;;;;;5.47;100.00;100327.19;4998658;28;21104;-80
2022/03/31 06:04:34;;;;;;;2.80;2.60;;;;;;;5.61;100.00;100331.72;5006479;28;20612;-79
2022/03/31 06:07:01;;;;;;;2.50;2.30;;;;;;;5.46;100.00;100338.84;4986238;28;20442;-79
2022/03/31 06:09:26;;;;;;;3.00;2.80;;;;;;;5.29;100.00;100290.25;5022394;22;20172;-73
2022/03/31 06:11:52;;;;;;;2.37;2.27;;;;;;;5.48;100.00;100318.22;5009848;28;20465;-74
2022/03/31 06:14:17;;;;;;;3.40;3.20;;;;;;;5.07;100.00;100254.69;5013950;28;20227;-74
2022/03/31 06:16:43;;;;;;;2.90;2.70;;;;;;;4.99;100.00;100306.06;5002620;28;20204;-73
2022/03/31 06:19:08;;;;;;;2.80;2.60;;;;;;;5.16;100.00;100290.84;5000844;28;20195;-73
2022/03/31 06:21:34;;;;;;;3.60;3.30;;;;;;;5.28;100.00;100302.72;4965631;28;20287;-73
2022/03/31 06:24:01;;;;;;;3.83;3.43;;;;;;;5.10;100.00;100337.59;4991948;28;20955;-73
2022/03/31 06:26:27;;;;;;;3.33;3.03;;;;;;;5.25;100.00;100324.34;4989338;28;20443;-73
2022/03/31 06:28:53;;;;;;;3.30;3.10;;;;;;;5.06;100.00;100296.38;4984268;28;20537;-73
2022/03/31 06:31:21;;;;;;;3.37;3.17;;;;;;;4.98;100.00;100284.00;4989269;28;20543;-73
2022/03/31 06:33:47;;;;;;;3.43;3.13;;;;;;;5.25;100.00;100305.75;4985927;28;20831;-73
2022/03/31 06:36:12;;;;;;;3.60;3.30;;;;;;;4.82;100.00;100262.81;4992275;28;20477;-73
2022/03/31 06:38:38;;;;;;;3.90;3.60;;;;;;;5.24;100.00;100351.13;4985760;28;20538;-72
2022/03/31 06:41:06;;;;;;;3.70;3.40;;;;;;;5.29;100.00;100354.06;4968365;28;20754;-73
2022/03/31 06:43:33;;;;;;;4.47;4.07;;;;;;;5.28;100.00;100336.47;4990915;28;20444;-73
2022/03/31 06:45:59;;;;;;;3.87;3.57;;;;;;;5.28;100.00;100355.91;4981434;28;20455;-72
2022/03/31 06:48:26;;;;;;;4.40;4.10;;;;;;;4.78;100.00;100292.59;4989701;28;20444;-72
2022/03/31 06:50:51;;;;;;;4.47;4.07;;;;;;;5.29;100.00;100354.06;4988364;28;20296;-72
2022/03/31 06:53:18;;;;;;;4.77;4.40;;;;;;;5.27;100.00;100354.25;4979673;28;20506;-72
2022/03/31 06:55:44;;;;;;;4.80;4.40;;;;;;;4.28;100.00;100245.00;4990162;28;21032;-72
2022/03/31 06:58:09;;;;;;;4.83;4.43;;;;;;;5.08;100.00;100360.84;4992897;28;20443;-72
2022/03/31 07:00:34;;;;;;;5.20;4.80;;;;;;;5.21;100.00;100353.13;4989856;28;20216;-72
2022/03/31 07:03:00;;;;;;;5.30;4.80;;;;;;;3.87;100.00;100209.00;4982698;28;20195;-72
2022/03/31 07:05:26;;;;;;;5.90;5.40;;;;;;;5.02;100.00;100366.88;4994760;28;20359;-72
2022/03/31 07:07:52;;;;;;;5.17;4.77;;;;;;;4.97;100.00;100334.66;4994033;28;20452;-73
2022/03/31 07:10:18;;;;;;;5.03;4.63;;;;;;;5.09;100.00;100330.63;4945642;28;20224;-72
2022/03/31 07:12:43;;;;;;;4.63;4.23;;;;;;;5.19;100.00;100356.97;4903191;28;20456;-73
2022/03/31 07:15:09;;;;;;;4.60;4.30;;;;;;;5.04;100.00;100356.06;4891503;28;20728;-72
2022/03/31 07:17:35;;;;;;;5.40;5.00;;;;;;;4.88;100.00;100357.78;4897519;28;20250;-72
2022/03/31 07:20:01;;;;;;;4.83;4.53;;;;;;;4.80;100.00;100331.25;4953409;28;21085;-72
2022/03/31 07:22:26;;;;;;;4.60;4.20;;;;;;;5.30;100.00;100369.03;4901904;28;20444;-73
2022/03/31 07:24:52;;;;;;;4.60;4.30;;;;;;;4.63;100.00;100273.88;4892511;28;20588;-72
2022/03/31 07:27:17;;;;;;;5.00;4.60;;;;;;;4.98;100.00;100334.50;4901308;28;20208;-72
2022/03/31 07:29:43;;;;;;;6.07;5.57;;;;;;;5.12;100.00;100363.97;4894165;28;20223;-73
2022/03/31 07:32:08;;;;;;;7.07;6.47;;;;;;;4.60;100.00;100333.53;4897258;28;20226;-73
2022/03/31 07:34:34;;;;;;;6.90;6.40;;;;;;;5.01;100.00;100359.91;4952307;28;20200;-72
2022/03/31 07:37:00;;;;;;;7.70;7.00;;;;;;;4.80;100.00;100335.75;4893040;28;20697;-72
2022/03/31 07:39:26;;;;;;;8.40;7.70;;;;;;;5.14;100.00;100384.06;4893620;28;20213;-72
2022/03/31 07:41:52;;;;;;;8.10;7.30;;;;;;;4.16;100.00;100293.31;4895693;28;25173;-72
2022/03/31 07:44:17;;;;;;;7.73;7.03;;;;;;;4.69;100.00;100380.31;4899125;28;20441;-72
2022/03/31 07:46:43;;;;;;;6.17;5.60;;;;;;;5.00;100.00;100379.50;4889805;28;20668;-72
2022/03/31 07:49:09;;;;;;;5.37;4.97;;;;;;;4.44;100.00;100318.47;4958949;28;20792;-72
2022/03/31 07:51:34;;;;;;;5.87;5.37;;;;;;;5.03;100.00;100359.72;4884103;28;20452;-72
2022/03/31 07:54:01;;;;;;;4.50;4.13;;;;;;;4.48;100.00;100325.09;4890160;28;20196;-72
2022/03/31 07:56:26;;;;;;;4.20;3.90;;;;;;;4.20;100.00;100300.78;4963197;28;20690;-72
2022/03/31 07:58:52;;;;;;;3.60;3.40;;;;;;;4.94;100.00;100377.53;4960548;28;20463;-73
2022/03/31 08:01:17;;;;;;;4.20;3.90;;;;;;;4.78;100.00;100372.31;4893210;28;20262;-72
2022/03/31 08:03:42;;;;;;;4.20;3.87;;;;;;;4.79;100.00;100373.94;4888458;28;20211;-72
2022/03/31 08:06:08;;;;;;;2.67;2.47;;;;;;;4.50;100.00;100331.03;4893633;28;20780;-73
2022/03/31 08:08:33;;;;;;;2.87;2.67;;;;;;;4.29;100.00;100291.78;4953498;28;20193;-73
2022/03/31 08:10:59;;;;;;;3.00;2.80;;;;;;;3.28;100.00;100166.88;4969654;28;20212;-73
2022/03/31 08:13:27;;;;;;;2.73;2.53;;;;;;;4.62;100.00;100376.66;4993266;28;20199;-73
2022/03/31 08:15:54;;;;;;;3.50;2.60;;;;;;;4.65;100.00;100381.63;4992577;28;20534;-72
2022/03/31 08:18:23;;;;;;;2.57;2.37;;;;;;;4.64;100.00;100376.50;4997987;28;20475;-73
2022/03/31 08:20:49;;;;;;;2.40;2.20;;;;;;;4.55;100.00;100370.38;4991654;28;20513;-72
2022/03/31 08:23:14;;;;;;;2.70;2.50;;;;;;;4.67;100.00;100382.28;4987678;28;20447;-72
2022/03/31 08:25:41;;;;;;;2.40;1.93;;;;;;;4.71;100.00;100383.59;4988139;28;20190;-73
2022/03/31 08:28:07;;;;;;;2.40;2.20;;;;;;;4.49;100.00;100384.34;4984371;28;20212;-72
2022/03/31 08:30:33;;;;;;;1.70;1.60;;;;;;;4.17;100.00;100311.75;4964639;28;20523;-72
2022/03/31 08:32:58;;;;;;;1.70;1.60;;;;;;;4.73;100.00;100370.97;4990428;28;20617;-72
2022/03/31 08:35:27;;;;;;;2.63;2.40;;;;;;;4.00;100.00;100320.75;4990884;28;20321;-72
2022/03/31 08:37:52;;;;;;;2.00;1.80;;;;;;;4.37;100.00;100349.38;4992082;28;20185;-73
2022/03/31 08:40:18;;;;;;;1.50;1.40;;;;;;;4.83;100.00;100385.88;4992421;28;20494;-73
2022/03/31 08:42:43;;;;;;;1.50;1.40;;;;;;;4.05;100.00;100282.09;4993252;28;20193;-73
2022/03/31 08:45:16;;;;;;;2.17;2.00;;;;;;;4.73;100.00;100384.25;4990021;28;20193;-73
2022/03/31 08:47:48;;;;;;;2.20;2.00;;;;;;;4.35;100.00;100337.25;4973794;28;20193;-73
2022/03/31 08:50:14;;;;;;;1.73;1.63;;;;;;;4.48;100.00;100385.34;4993556;28;20758;-73
2022/03/31 08:52:40;;;;;;;2.00;1.80;;;;;;;4.56;100.00;100390.63;4988106;28;20554;-74
2022/03/31 08:55:08;;;;;;;2.30;2.10;;;;;;;4.52;100.00;100389.31;4991340;28;20505;-74
2022/03/31 08:57:49;;;;;;;1.87;1.77;;;;;;;4.29;100.00;100367.97;4992556;28;20708;-74
2022/03/31 09:00:16;;;;;;;2.40;2.23;;;;;;;4.30;100.00;100402.28;4989786;28;21678;-74
2022/03/31 09:03:00;;;;;;;1.87;1.77;;;;;;;4.66;100.00;100399.25;4971847;28;20850;-73
2022/03/31 09:05:27;;;;;;;1.73;1.63;;;;;;;3.58;100.00;100253.63;4990114;28;20445;-73
2022/03/31 09:07:58;;;;;;;1.40;1.30;;;;;;;4.56;100.00;100398.59;4968479;28;20455;-74
2022/03/31 09:10:28;;;;;;;321.10;53.97;;;;;;;4.65;100.00;100402.06;4991611;28;20526;-74
2022/03/31 09:12:54;;;;;;;90.67;18.70;;;;;;;4.69;100.00;100406.03;4991394;28;20932;-75
2022/03/31 09:15:19;;;;;;;8.13;3.80;;;;;;;4.40;100.00;100367.63;4972955;28;20541;-73
2022/03/31 09:17:44;;;;;;;65.70;15.43;;;;;;;4.42;100.00;100389.50;4986412;28;20232;-73
2022/03/31 09:20:10;;;;;;;156.90;29.30;;;;;;;3.69;100.00;100350.59;4986719;28;25630;-73
2022/03/31 09:22:48;;;;;;;11.97;5.70;;;;;;;4.19;100.00;100396.50;4988559;28;20197;-73
2022/03/31 09:25:22;;;;;;;2.00;1.83;;;;;;;4.07;100.00;100353.56;4991822;28;20185;-74
2022/03/31 09:27:47;;;;;;;42.70;5.77;;;;;;;4.04;100.00;100322.88;4980827;28;24912;-73
2022/03/31 09:30:13;;;;;;;142.33;24.53;;;;;;;4.02;100.00;100305.47;4984916;28;20478;-72
2022/03/31 09:32:49;;;;;;;41.90;8.80;;;;;;;4.22;100.00;100397.03;4992481;28;20327;-72
2022/03/31 09:35:20;;;;;;;76.53;11.37;;;;;;;4.35;100.00;100403.63;4990249;28;20212;-72
2022/03/31 09:37:48;;;;;;;315.70;49.03;;;;;;;4.11;100.00;100383.25;4987172;28;20479;-73
2022/03/31 09:40:13;;;;;;;53.20;11.20;;;;;;;4.16;100.00;100415.44;4974161;28;20880;-74
2022/03/31 09:42:39;;;;;;;243.83;34.57;;;;;;;4.53;100.00;100412.22;4984715;28;20452;-73
2022/03/31 09:45:05;;;;;;;39.10;7.70;;;;;;;4.40;100.00;100415.41;4990130;28;20194;-73
2022/03/31 09:47:30;;;;;;;8.40;2.20;;;;;;;3.84;100.00;100326.88;4972295;28;20228;-72
2022/03/31 09:49:56;;;;;;;1.80;1.70;;;;;;;4.36;100.00;100410.59;4990085;28;20474;-73
2022/03/31 09:52:22;;;;;;;1.93;1.73;;;;;;;4.44;100.00;100415.91;4989456;28;20193;-73
2022/03/31 09:54:49;;;;;;;2.90;2.60;;;;;;;4.56;100.00;100381.84;4993034;28;20464;-72
2022/03/31 09:57:20;;;;;;;6.27;2.60;;;;;;;3.98;100.00;100412.94;4991285;28;20188;-73
2022/03/31 09:59:50;;;;;;;2.40;2.17;;;;;;;4.01;100.00;100349.75;4985395;28;21038;-74
2022/03/31 10:02:16;;;;;;;1.60;1.50;;;;;;;3.79;100.00;100330.06;4984375;28;20452;-74
2022/03/31 10:04:44;;;;;;;1.87;1.77;;;;;;;4.03;100.00;100415.94;4971924;28;20443;-76
2022/03/31 10:07:10;;;;;;;2.60;1.93;;;;;;;3.80;100.00;100330.88;4992428;28;20192;-77
2022/03/31 10:09:39;;;;;;;1.57;1.40;;;;;;;4.24;100.00;100424.22;4989356;28;20467;-75
2022/03/31 10:12:46;;;;;;;1.60;1.50;;;;;;;4.25;100.00;100404.66;4993218;28;20454;-74
2022/03/31 10:15:20;;;;;;;2.10;1.90;;;;;;;3.87;100.00;100400.84;4911093;28;20470;-75
2022/03/31 10:17:48;;;;;;;2.67;1.90;;;;;;;3.53;100.00;100371.81;4983089;28;20526;-73
2022/03/31 10:20:16;;;;;;;1.97;1.87;;;;;;;4.00;100.00;100424.25;4987946;28;20468;-74
2022/03/31 10:25:42;;;;;;;12.13;2.20;;;;;;;3.66;100.00;100389.91;4992124;28;20487;-74
2022/03/31 10:28:18;;;;;;;2.67;2.47;;;;;;;3.48;100.00;100374.16;4992930;28;20447;-79
2022/03/31 10:30:57;;;;;;;20.37;12.47;;;;;;;3.83;100.00;100415.44;4992327;28;20507;-76
2022/03/31 10:33:29;;;;;;;10.60;7.70;;;;;;;3.88;100.00;100417.59;4986821;28;20501;-78
2022/03/31 10:36:09;;;;;;;23.47;16.20;;;;;;;4.02;100.00;100406.31;4988724;28;20471;-78
2022/03/31 10:38:35;;;;;;;23.13;16.33;;;;;;;3.90;100.00;100415.59;4971392;28;20439;-78
2022/03/31 10:41:05;;;;;;;14.50;12.43;;;;;;;4.06;100.00;100412.94;4989536;28;20467;-78
2022/03/31 10:43:32;;;;;;;6.70;5.33;;;;;;;4.30;100.00;100417.41;4987182;28;20443;-78
2022/03/31 10:46:01;;;;;;;1.97;1.87;;;;;;;3.81;100.00;100341.31;4980419;28;20444;-77
2022/03/31 10:48:31;;;;;;;2.50;2.00;;;;;;;3.71;100.00;100345.97;4982463;28;20455;-79
2022/03/31 10:56:25;;;;;;;2.33;2.13;;;;;;;3.89;100.00;100419.25;5068033;27;20567;-74
2022/03/31 10:58:56;;;;;;;3.50;2.40;;;;;;;3.89;100.00;100413.94;5058168;28;20982;-74
2022/03/31 11:01:25;;;;;;;2.50;2.30;;;;;;;3.35;100.00;100348.91;5037550;28;20945;-77
2022/03/31 11:03:51;;;;;;;2.10;2.00;;;;;;;3.85;100.00;100400.19;5041125;28;20950;-76
2022/03/31 11:06:18;;;;;;;8.83;3.70;;;;;;;3.76;100.00;100419.72;5038727;28;20477;-77
2022/03/31 11:08:48;;;;;;;205.83;34.40;;;;;;;3.55;100.00;100338.00;5037321;28;20465;-79
2022/03/31 11:11:19;;;;;;;228.10;32.43;;;;;;;3.73;100.00;100343.13;5037236;28;20464;-76
2022/03/31 11:13:45;;;;;;;12.67;4.67;;;;;;;3.59;100.00;100382.59;5040122;28;20448;-75
2022/03/31 11:16:11;;;;;;;2.83;2.57;;;;;;;3.68;100.00;100366.69;5042077;28;20441;-75
2022/03/31 11:18:36;;;;;;;10.00;3.07;;;;;;;4.27;100.00;100402.63;5048501;28;20737;-78
2022/03/31 11:21:03;;;;;;;3.83;2.30;;;;;;;3.96;100.00;100397.19;5047801;28;21306;-76
2022/03/31 11:23:30;;;;;;;3.07;2.37;;;;;;;3.41;100.00;100339.47;5047405;28;20202;-75
2022/03/31 11:25:56;;;;;;;2.30;2.20;;;;;;;3.43;100.00;100337.50;5042689;28;20469;-76
2022/03/31 11:28:22;;;;;;;2.60;2.40;;;;;;;4.32;100.00;100419.91;5045143;28;20494;-75
2022/03/31 11:30:49;;;;;;;3.70;2.67;;;;;;;4.33;100.00;100395.81;5039986;28;20458;-76
2022/03/31 11:33:16;;;;;;;6.83;4.00;;;;;;;4.30;100.00;100404.94;5037117;28;20439;-77